sensor_id;sensor_type;location;lat;lon;timestamp;pressure;altitude;pressure_sealevel;temperature;humidity
61618;BME280;47518;51.776;9.370;2023-04-03T00:00:12;101652.44;;;2.87;66.23
61618;BME280;47518;51.776;9.370;2023-04-03T00:02:37;101658.59;;;2.89;66.90
61618;BME280;47518;51.776;9.370;2023-04-03T00:05:03;101654.09;;;2.89;66.68
61618;BME280;47518;51.776;9.370;2023-04-03T00:07:29;101653.41;;;2.86;67.02
61618;BME280;47518;51.776;9.370;2023-04-03T00:09:56;101661.75;;;2.81;66.80
61618;BME280;47518;51.776;9.370;2023-04-03T00:12:21;101659.28;;;2.78;66.69
61618;BME280;47518;51.776;9.370;2023-04-03T00:14:46;101660.41;;;2.74;66.71
61618;BME280;47518;51.776;9.370;2023-04-03T00:17:12;101663.09;;;2.74;66.71
61618;BME280;47518;51.776;9.370;2023-04-03T00:19:37;101659.28;;;2.78;66.56
61618;BME280;47518;51.776;9.370;2023-04-03T00:22:02;101663.75;;;2.78;66.43
61618;BME280;47518;51.776;9.370;2023-04-03T00:24:27;101666.91;;;2.70;67.01
61618;BME280;47518;51.776;9.370;2023-04-03T00:26:53;101662.31;;;2.72;66.54
61618;BME280;47518;51.776;9.370;2023-04-03T00:29:18;101673.16;;;2.71;66.29
61618;BME280;47518;51.776;9.370;2023-04-03T00:31:43;101681.00;;;2.59;66.67
61618;BME280;47518;51.776;9.370;2023-04-03T00:34:09;101688.09;;;2.60;67.30
61618;BME280;47518;51.776;9.370;2023-04-03T00:36:34;101675.81;;;2.56;67.07
61618;BME280;47518;51.776;9.370;2023-04-03T00:38:59;101681.94;;;2.58;66.49
61618;BME280;47518;51.776;9.370;2023-04-03T00:41:25;101687.41;;;2.57;67.01
61618;BME280;47518;51.776;9.370;2023-04-03T00:43:51;101685.41;;;2.60;66.86
61618;BME280;47518;51.776;9.370;2023-04-03T00:46:16;101690.97;;;2.57;67.59
61618;BME280;47518;51.776;9.370;2023-04-03T00:48:44;101683.75;;;2.44;67.37
61618;BME280;47518;51.776;9.370;2023-04-03T00:51:14;101688.06;;;2.46;68.55
61618;BME280;47518;51.776;9.370;2023-04-03T00:53:46;101686.72;;;2.53;67.15
61618;BME280;47518;51.776;9.370;2023-04-03T00:56:14;101685.69;;;2.56;67.48
61618;BME280;47518;51.776;9.370;2023-04-03T00:58:45;101691.09;;;2.40;68.46
61618;BME280;47518;51.776;9.370;2023-04-03T01:01:15;101687.09;;;2.47;67.42
61618;BME280;47518;51.776;9.370;2023-04-03T01:03:41;101696.19;;;2.45;69.00
61618;BME280;47518;51.776;9.370;2023-04-03T01:06:07;101695.25;;;2.46;68.90
61618;BME280;47518;51.776;9.370;2023-04-03T01:08:32;101696.00;;;2.48;68.71
61618;BME280;47518;51.776;9.370;2023-04-03T01:10:58;101693.31;;;2.48;70.42
61618;BME280;47518;51.776;9.370;2023-04-03T01:13:28;101693.69;;;2.42;70.12
61618;BME280;47518;51.776;9.370;2023-04-03T01:15:54;101693.44;;;2.30;69.72
61618;BME280;47518;51.776;9.370;2023-04-03T01:18:20;101690.53;;;2.19;69.51
61618;BME280;47518;51.776;9.370;2023-04-03T01:23:39;101694.88;;;2.06;69.25
61618;BME280;47518;51.776;9.370;2023-04-03T01:26:08;101692.81;;;1.95;69.69
61618;BME280;47518;51.776;9.370;2023-04-03T01:28:35;101692.75;;;1.97;69.96
61618;BME280;47518;51.776;9.370;2023-04-03T01:31:09;101696.78;;;2.04;70.01
61618;BME280;47518;51.776;9.370;2023-04-03T01:33:37;101691.59;;;2.01;68.95
61618;BME280;47518;51.776;9.370;2023-04-03T01:36:08;101696.19;;;1.99;69.85
61618;BME280;47518;51.776;9.370;2023-04-03T01:38:34;101694.91;;;1.90;70.22
61618;BME280;47518;51.776;9.370;2023-04-03T01:41:00;101690.81;;;1.83;70.11
61618;BME280;47518;51.776;9.370;2023-04-03T01:43:25;101696.38;;;1.80;70.36
61618;BME280;47518;51.776;9.370;2023-04-03T01:45:50;101696.47;;;1.79;70.14
61618;BME280;47518;51.776;9.370;2023-04-03T01:48:17;101694.38;;;1.84;69.61
61618;BME280;47518;51.776;9.370;2023-04-03T01:50:43;101693.00;;;1.77;69.60
61618;BME280;47518;51.776;9.370;2023-04-03T01:53:08;101696.28;;;1.82;69.35
61618;BME280;47518;51.776;9.370;2023-04-03T01:55:34;101697.41;;;1.78;70.52
61618;BME280;47518;51.776;9.370;2023-04-03T01:57:59;101695.69;;;1.77;69.49
61618;BME280;47518;51.776;9.370;2023-04-03T02:00:24;101703.09;;;1.71;70.04
61618;BME280;47518;51.776;9.370;2023-04-03T02:02:51;101702.59;;;1.65;70.96
61618;BME280;47518;51.776;9.370;2023-04-03T02:05:16;101697.94;;;1.53;71.26
61618;BME280;47518;51.776;9.370;2023-04-03T02:07:41;101690.84;;;1.52;71.00
61618;BME280;47518;51.776;9.370;2023-04-03T02:10:07;101690.28;;;1.45;71.03
61618;BME280;47518;51.776;9.370;2023-04-03T02:12:32;101697.19;;;1.49;71.70
61618;BME280;47518;51.776;9.370;2023-04-03T02:14:58;101694.78;;;1.44;70.95
61618;BME280;47518;51.776;9.370;2023-04-03T02:17:23;101692.97;;;1.45;70.76
61618;BME280;47518;51.776;9.370;2023-04-03T02:19:48;101690.38;;;1.43;71.74
61618;BME280;47518;51.776;9.370;2023-04-03T02:22:14;101689.75;;;1.38;71.84
61618;BME280;47518;51.776;9.370;2023-04-03T02:24:39;101695.28;;;1.35;71.51
61618;BME280;47518;51.776;9.370;2023-04-03T02:27:05;101685.69;;;1.31;71.18
61618;BME280;47518;51.776;9.370;2023-04-03T02:29:30;101697.47;;;1.29;71.37
61618;BME280;47518;51.776;9.370;2023-04-03T02:31:56;101700.72;;;1.34;70.86
61618;BME280;47518;51.776;9.370;2023-04-03T02:34:21;101701.78;;;1.31;70.52
61618;BME280;47518;51.776;9.370;2023-04-03T02:36:46;101704.00;;;1.39;71.43
61618;BME280;47518;51.776;9.370;2023-04-03T02:39:12;101696.41;;;1.31;70.85
61618;BME280;47518;51.776;9.370;2023-04-03T02:41:37;101706.44;;;1.28;70.35
61618;BME280;47518;51.776;9.370;2023-04-03T02:44:04;101712.31;;;1.34;69.90
61618;BME280;47518;51.776;9.370;2023-04-03T02:46:30;101705.50;;;1.29;70.44
61618;BME280;47518;51.776;9.370;2023-04-03T02:48:56;101714.03;;;1.20;71.75
61618;BME280;47518;51.776;9.370;2023-04-03T02:51:21;101712.03;;;1.23;71.87
61618;BME280;47518;51.776;9.370;2023-04-03T02:53:48;101711.81;;;1.28;71.71
61618;BME280;47518;51.776;9.370;2023-04-03T02:56:13;101721.88;;;1.23;71.87
61618;BME280;47518;51.776;9.370;2023-04-03T02:58:38;101718.06;;;1.27;71.66
61618;BME280;47518;51.776;9.370;2023-04-03T03:01:04;101717.66;;;1.19;71.18
61618;BME280;47518;51.776;9.370;2023-04-03T03:03:29;101721.09;;;1.21;70.48
61618;BME280;47518;51.776;9.370;2023-04-03T03:06:06;101720.94;;;1.24;70.78
61618;BME280;47518;51.776;9.370;2023-04-03T03:08:38;101726.13;;;1.27;71.28
61618;BME280;47518;51.776;9.370;2023-04-03T03:11:04;101732.00;;;1.17;72.22
61618;BME280;47518;51.776;9.370;2023-04-03T03:13:30;101728.28;;;1.20;71.87
61618;BME280;47518;51.776;9.370;2023-04-03T03:15:55;101729.63;;;1.11;71.37
61618;BME280;47518;51.776;9.370;2023-04-03T03:18:21;101731.44;;;1.11;71.53
61618;BME280;47518;51.776;9.370;2023-04-03T03:20:51;101739.72;;;1.06;72.67
61618;BME280;47518;51.776;9.370;2023-04-03T03:23:16;101736.53;;;1.15;71.50
61618;BME280;47518;51.776;9.370;2023-04-03T03:25:42;101736.97;;;1.08;71.75
61618;BME280;47518;51.776;9.370;2023-04-03T03:28:07;101732.13;;;1.14;71.22
61618;BME280;47518;51.776;9.370;2023-04-03T03:30:33;101735.38;;;1.04;71.82
61618;BME280;47518;51.776;9.370;2023-04-03T03:32:58;101740.91;;;1.01;72.94
61618;BME280;47518;51.776;9.370;2023-04-03T03:35:24;101744.69;;;0.97;72.43
61618;BME280;47518;51.776;9.370;2023-04-03T03:37:49;101744.78;;;0.95;72.17
61618;BME280;47518;51.776;9.370;2023-04-03T03:40:15;101746.59;;;0.95;72.96
61618;BME280;47518;51.776;9.370;2023-04-03T03:42:40;101753.81;;;0.93;72.51
61618;BME280;47518;51.776;9.370;2023-04-03T03:45:06;101746.03;;;0.88;72.11
61618;BME280;47518;51.776;9.370;2023-04-03T03:47:32;101749.75;;;0.85;72.81
61618;BME280;47518;51.776;9.370;2023-04-03T03:49:57;101745.34;;;0.84;73.22
61618;BME280;47518;51.776;9.370;2023-04-03T03:52:26;101743.53;;;0.85;72.74
61618;BME280;47518;51.776;9.370;2023-04-03T03:54:51;101745.25;;;0.86;72.70
61618;BME280;47518;51.776;9.370;2023-04-03T03:57:16;101745.50;;;0.81;71.66
61618;BME280;47518;51.776;9.370;2023-04-03T03:59:42;101747.44;;;0.78;73.34
61618;BME280;47518;51.776;9.370;2023-04-03T04:02:09;101744.16;;;0.73;73.21
61618;BME280;47518;51.776;9.370;2023-04-03T04:04:35;101745.19;;;0.70;73.48
61618;BME280;47518;51.776;9.370;2023-04-03T04:07:01;101740.69;;;0.71;73.18
61618;BME280;47518;51.776;9.370;2023-04-03T04:09:26;101749.59;;;0.71;72.67
61618;BME280;47518;51.776;9.370;2023-04-03T04:11:52;101740.69;;;0.71;71.68
61618;BME280;47518;51.776;9.370;2023-04-03T04:14:17;101739.88;;;0.69;72.08
61618;BME280;47518;51.776;9.370;2023-04-03T04:16:43;101740.69;;;0.71;71.99
61618;BME280;47518;51.776;9.370;2023-04-03T04:19:08;101730.47;;;0.62;73.38
61618;BME280;47518;51.776;9.370;2023-04-03T04:21:33;101731.41;;;0.61;73.33
61618;BME280;47518;51.776;9.370;2023-04-03T04:23:59;101738.94;;;0.52;72.96
61618;BME280;47518;51.776;9.370;2023-04-03T04:26:24;101731.53;;;0.57;72.74
61618;BME280;47518;51.776;9.370;2023-04-03T04:28:49;101732.03;;;0.66;73.53
61618;BME280;47518;51.776;9.370;2023-04-03T04:31:15;101744.53;;;0.65;73.25
61618;BME280;47518;51.776;9.370;2023-04-03T04:33:40;101737.53;;;0.63;72.39
61618;BME280;47518;51.776;9.370;2023-04-03T04:36:06;101739.34;;;0.62;73.74
61618;BME280;47518;51.776;9.370;2023-04-03T04:38:31;101749.03;;;0.65;72.50
61618;BME280;47518;51.776;9.370;2023-04-03T04:40:56;101755.50;;;0.61;73.49
61618;BME280;47518;51.776;9.370;2023-04-03T04:43:22;101755.63;;;0.57;73.69
61618;BME280;47518;51.776;9.370;2023-04-03T04:45:47;101767.28;;;0.56;73.16
61618;BME280;47518;51.776;9.370;2023-04-03T04:48:12;101767.44;;;0.53;73.32
61618;BME280;47518;51.776;9.370;2023-04-03T04:50:38;101761.88;;;0.58;73.06
61618;BME280;47518;51.776;9.370;2023-04-03T04:53:03;101767.44;;;0.53;73.61
61618;BME280;47518;51.776;9.370;2023-04-03T04:55:29;101767.88;;;0.44;73.77
61618;BME280;47518;51.776;9.370;2023-04-03T04:57:54;101775.72;;;0.49;74.21
61618;BME280;47518;51.776;9.370;2023-04-03T05:00:20;101767.34;;;0.55;73.60
61618;BME280;47518;51.776;9.370;2023-04-03T05:02:45;101768.13;;;0.57;74.13
61618;BME280;47518;51.776;9.370;2023-04-03T05:05:10;101772.94;;;0.50;72.91
61618;BME280;47518;51.776;9.370;2023-04-03T05:07:39;101776.56;;;0.49;74.24
61618;BME280;47518;51.776;9.370;2023-04-03T05:10:04;101782.88;;;0.48;74.33
61618;BME280;47518;51.776;9.370;2023-04-03T05:12:30;101781.59;;;0.55;73.06
61618;BME280;47518;51.776;9.370;2023-04-03T05:14:56;101789.25;;;0.63;73.29
61618;BME280;47518;51.776;9.370;2023-04-03T05:17:21;101783.19;;;0.60;74.50
61618;BME280;47518;51.776;9.370;2023-04-03T05:19:46;101787.06;;;0.71;73.48
61618;BME280;47518;51.776;9.370;2023-04-03T05:22:12;101794.16;;;0.72;72.72
61618;BME280;47518;51.776;9.370;2023-04-03T05:24:37;101796.97;;;0.69;72.96
61618;BME280;47518;51.776;9.370;2023-04-03T05:27:02;101777.75;;;0.78;73.02
61618;BME280;47518;51.776;9.370;2023-04-03T05:29:28;101796.59;;;0.77;72.86
61618;BME280;47518;51.776;9.370;2023-04-03T05:31:53;101788.25;;;0.83;72.59
61618;BME280;47518;51.776;9.370;2023-04-03T05:34:19;101796.19;;;1.02;72.88
61618;BME280;47518;51.776;9.370;2023-04-03T05:36:44;101796.34;;;0.99;73.47
61618;BME280;47518;51.776;9.370;2023-04-03T05:39:09;101797.63;;;1.09;72.27
61618;BME280;47518;51.776;9.370;2023-04-03T05:41:35;101799.59;;;1.05;72.30
61618;BME280;47518;51.776;9.370;2023-04-03T05:44:00;101800.22;;;1.10;71.60
61618;BME280;47518;51.776;9.370;2023-04-03T05:46:26;101809.03;;;1.12;72.16
61618;BME280;47518;51.776;9.370;2023-04-03T05:48:51;101807.81;;;1.35;71.26
61618;BME280;47518;51.776;9.370;2023-04-03T05:51:22;101809.94;;;1.46;69.69
61618;BME280;47518;51.776;9.370;2023-04-03T05:53:47;101810.72;;;1.48;70.41
61618;BME280;47518;51.776;9.370;2023-04-03T05:56:15;101808.28;;;1.43;70.98
61618;BME280;47518;51.776;9.370;2023-04-03T05:58:40;101816.09;;;1.48;69.90
61618;BME280;47518;51.776;9.370;2023-04-03T06:01:05;101818.75;;;1.65;69.80
61618;BME280;47518;51.776;9.370;2023-04-03T06:03:31;101814.56;;;1.60;69.81
61618;BME280;47518;51.776;9.370;2023-04-03T06:05:56;101831.19;;;1.66;69.04
61618;BME280;47518;51.776;9.370;2023-04-03T06:08:22;101825.44;;;1.57;68.80
61618;BME280;47518;51.776;9.370;2023-04-03T06:24:48;101840.31;;;1.29;70.64
61618;BME280;47518;51.776;9.370;2023-04-03T06:27:13;101838.28;;;1.50;69.66
61618;BME280;47518;51.776;9.370;2023-04-03T06:29:39;101838.84;;;1.74;69.28
61618;BME280;47518;51.776;9.370;2023-04-03T06:32:05;101839.44;;;1.95;68.59
61618;BME280;47518;51.776;9.370;2023-04-03T06:34:45;101840.34;;;2.11;67.25
61618;BME280;47518;51.776;9.370;2023-04-03T06:37:16;101838.94;;;2.20;66.57
61618;BME280;47518;51.776;9.370;2023-04-03T06:39:42;101851.34;;;2.22;66.68
61618;BME280;47518;51.776;9.370;2023-04-03T06:42:07;101849.69;;;2.51;65.68
61618;BME280;47518;51.776;9.370;2023-04-03T06:44:33;101858.09;;;2.61;64.49
61618;BME280;47518;51.776;9.370;2023-04-03T06:46:59;101852.63;;;2.62;65.32
61618;BME280;47518;51.776;9.370;2023-04-03T06:49:25;101847.53;;;2.58;64.15
61618;BME280;47518;51.776;9.370;2023-04-03T06:51:50;101855.66;;;2.72;63.72
61618;BME280;47518;51.776;9.370;2023-04-03T06:54:16;101867.59;;;2.82;63.80
61618;BME280;47518;51.776;9.370;2023-04-03T06:56:42;101860.94;;;2.89;63.16
61618;BME280;47518;51.776;9.370;2023-04-03T06:59:07;101861.09;;;3.02;61.98
61618;BME280;47518;51.776;9.370;2023-04-03T07:01:33;101868.09;;;3.05;61.82
61618;BME280;47518;51.776;9.370;2023-04-03T07:03:58;101866.41;;;3.18;59.83
61618;BME280;47518;51.776;9.370;2023-04-03T07:06:24;101875.56;;;3.30;60.20
61618;BME280;47518;51.776;9.370;2023-04-03T07:08:52;101885.84;;;3.37;59.80
61618;BME280;47518;51.776;9.370;2023-04-03T07:11:17;101882.03;;;3.41;58.60
61618;BME280;47518;51.776;9.370;2023-04-03T07:13:43;101885.66;;;3.40;58.88
61618;BME280;47518;51.776;9.370;2023-04-03T07:16:11;101888.16;;;3.43;57.84
61618;BME280;47518;51.776;9.370;2023-04-03T07:18:40;101891.38;;;3.50;59.51
61618;BME280;47518;51.776;9.370;2023-04-03T07:21:06;101898.34;;;3.38;59.12
61618;BME280;47518;51.776;9.370;2023-04-03T07:23:32;101898.38;;;3.53;59.57
61618;BME280;47518;51.776;9.370;2023-04-03T07:25:58;101899.88;;;3.42;59.01
61618;BME280;47518;51.776;9.370;2023-04-03T07:28:26;101900.78;;;3.57;58.90
61618;BME280;47518;51.776;9.370;2023-04-03T07:30:58;101906.66;;;3.64;58.64
61618;BME280;47518;51.776;9.370;2023-04-03T07:33:25;101911.16;;;3.63;58.93
61618;BME280;47518;51.776;9.370;2023-04-03T07:35:56;101914.06;;;3.74;58.86
61618;BME280;47518;51.776;9.370;2023-04-03T07:38:21;101916.97;;;3.86;57.51
61618;BME280;47518;51.776;9.370;2023-04-03T07:40:48;101909.88;;;3.99;57.76
61618;BME280;47518;51.776;9.370;2023-04-03T07:43:16;101905.34;;;3.99;57.05
61618;BME280;47518;51.776;9.370;2023-04-03T07:45:41;101921.78;;;4.09;56.70
61618;BME280;47518;51.776;9.370;2023-04-03T07:48:08;101908.53;;;4.20;56.64
61618;BME280;47518;51.776;9.370;2023-04-03T07:50:33;101917.94;;;4.27;56.77
61618;BME280;47518;51.776;9.370;2023-04-03T07:53:02;101912.06;;;4.35;56.11
61618;BME280;47518;51.776;9.370;2023-04-03T07:55:28;101910.91;;;4.39;55.24
61618;BME280;47518;51.776;9.370;2023-04-03T07:57:53;101909.84;;;4.27;56.46
61618;BME280;47518;51.776;9.370;2023-04-03T08:00:20;101917.44;;;4.35;55.00
61618;BME280;47518;51.776;9.370;2023-04-03T08:02:45;101911.28;;;4.47;55.21
61618;BME280;47518;51.776;9.370;2023-04-03T08:05:17;101912.31;;;4.59;55.64
61618;BME280;47518;51.776;9.370;2023-04-03T08:07:42;101921.06;;;4.62;55.47
61618;BME280;47518;51.776;9.370;2023-04-03T08:10:08;101920.88;;;4.65;54.46
61618;BME280;47518;51.776;9.370;2023-04-03T08:12:34;101923.91;;;4.74;55.00
61618;BME280;47518;51.776;9.370;2023-04-03T08:15:00;101926.22;;;4.80;54.32
61618;BME280;47518;51.776;9.370;2023-04-03T08:17:26;101920.41;;;4.86;54.04
61618;BME280;47518;51.776;9.370;2023-04-03T08:19:52;101917.13;;;4.95;54.17
61618;BME280;47518;51.776;9.370;2023-04-03T08:22:17;101928.75;;;4.68;53.63
61618;BME280;47518;51.776;9.370;2023-04-03T08:24:43;101916.88;;;4.85;54.38
61618;BME280;47518;51.776;9.370;2023-04-03T08:27:09;101918.22;;;4.92;52.64
61618;BME280;47518;51.776;9.370;2023-04-03T08:29:34;101920.41;;;5.00;49.66
61618;BME280;47518;51.776;9.370;2023-04-03T08:31:59;101917.78;;;5.25;48.28
61618;BME280;47518;51.776;9.370;2023-04-03T08:34:25;101918.53;;;5.27;47.91
61618;BME280;47518;51.776;9.370;2023-04-03T08:36:50;101909.53;;;5.41;47.71
61618;BME280;47518;51.776;9.370;2023-04-03T08:39:16;101915.19;;;5.64;47.47
61618;BME280;47518;51.776;9.370;2023-04-03T08:41:43;101905.16;;;5.78;46.78
61618;BME280;47518;51.776;9.370;2023-04-03T08:44:15;101899.84;;;5.90;46.98
61618;BME280;47518;51.776;9.370;2023-04-03T08:47:04;101900.78;;;6.03;45.85
61618;BME280;47518;51.776;9.370;2023-04-03T08:55:24;101910.28;;;5.96;45.11
61618;BME280;47518;51.776;9.370;2023-04-03T08:58:10;101912.22;;;6.06;45.86
61618;BME280;47518;51.776;9.370;2023-04-03T09:03:21;101915.06;;;5.78;46.48
61618;BME280;47518;51.776;9.370;2023-04-03T09:05:53;101910.06;;;5.99;46.00
61618;BME280;47518;51.776;9.370;2023-04-03T09:11:37;101906.78;;;6.32;45.68
61618;BME280;47518;51.776;9.370;2023-04-03T09:17:00;101909.81;;;6.02;47.16
61618;BME280;47518;51.776;9.370;2023-04-03T09:27:41;101900.50;;;6.44;45.78
61618;BME280;47518;51.776;9.370;2023-04-03T09:30:13;101893.38;;;6.43;45.98
61618;BME280;47518;51.776;9.370;2023-04-03T09:32:41;101901.69;;;6.40;45.24
61618;BME280;47518;51.776;9.370;2023-04-03T09:35:27;101904.06;;;6.44;45.94
61618;BME280;47518;51.776;9.370;2023-04-03T09:37:58;101901.69;;;6.53;44.39
61618;BME280;47518;51.776;9.370;2023-04-03T09:49:11;101897.97;;;7.14;43.40
61618;BME280;47518;51.776;9.370;2023-04-03T09:51:37;101892.56;;;6.90;43.79
61618;BME280;47518;51.776;9.370;2023-04-03T09:54:24;101893.38;;;7.03;45.34
61618;BME280;47518;51.776;9.370;2023-04-03T09:56:53;101888.56;;;7.20;43.51
61618;BME280;47518;51.776;9.370;2023-04-03T09:59:20;101885.78;;;7.32;44.12
61618;BME280;47518;51.776;9.370;2023-04-03T10:04:49;101883.66;;;7.71;43.29
61618;BME280;47518;51.776;9.370;2023-04-03T10:07:33;101876.94;;;7.99;42.75
61618;BME280;47518;51.776;9.370;2023-04-03T10:10:02;101875.22;;;8.20;42.07
61618;BME280;47518;51.776;9.370;2023-04-03T10:12:28;101875.00;;;8.35;41.86
61618;BME280;47518;51.776;9.370;2023-04-03T10:14:59;101857.22;;;8.31;41.59
61618;BME280;47518;51.776;9.370;2023-04-03T10:20:33;101867.28;;;7.26;41.75
61618;BME280;47518;51.776;9.370;2023-04-03T10:23:27;101875.84;;;6.85;43.27
61618;BME280;47518;51.776;9.370;2023-04-03T10:28:54;101875.72;;;6.87;43.34
61618;BME280;47518;51.776;9.370;2023-04-03T10:34:29;101875.59;;;6.64;43.36
61618;BME280;47518;51.776;9.370;2023-04-03T10:42:22;101855.84;;;9.97;37.58
61618;BME280;47518;51.776;9.370;2023-04-03T10:58:43;101840.28;;;8.83;39.84
61618;BME280;47518;51.776;9.370;2023-04-03T11:01:16;101850.94;;;7.97;41.10
61618;BME280;47518;51.776;9.370;2023-04-03T11:03:49;101854.38;;;7.65;42.10
61618;BME280;47518;51.776;9.370;2023-04-03T11:06:19;101839.03;;;7.77;42.32
61618;BME280;47518;51.776;9.370;2023-04-03T11:09:05;101846.59;;;7.60;42.83
61618;BME280;47518;51.776;9.370;2023-04-03T11:11:37;101834.22;;;7.92;40.83
61618;BME280;47518;51.776;9.370;2023-04-03T11:16:51;101808.19;;;11.21;34.90
61618;BME280;47518;51.776;9.370;2023-04-03T11:19:27;101818.03;;;12.17;33.76
61618;BME280;47518;51.776;9.370;2023-04-03T11:22:02;101815.09;;;11.06;35.79
61618;BME280;47518;51.776;9.370;2023-04-03T11:24:32;101825.06;;;9.86;35.65
61618;BME280;47518;51.776;9.370;2023-04-03T11:26:59;101812.13;;;8.95;39.10
61618;BME280;47518;51.776;9.370;2023-04-03T11:29:35;101824.47;;;9.20;39.04
61618;BME280;47518;51.776;9.370;2023-04-03T11:32:11;101822.44;;;9.33;38.57
61618;BME280;47518;51.776;9.370;2023-04-03T11:34:46;101825.34;;;9.42;38.11
61618;BME280;47518;51.776;9.370;2023-04-03T11:40:26;101816.34;;;8.34;38.20
61618;BME280;47518;51.776;9.370;2023-04-03T11:42:55;101816.47;;;8.10;38.55
61618;BME280;47518;51.776;9.370;2023-04-03T11:45:36;101812.56;;;8.14;38.75
61618;BME280;47518;51.776;9.370;2023-04-03T11:57:23;101812.81;;;7.88;41.11
61618;BME280;47518;51.776;9.370;2023-04-03T12:03:32;101802.03;;;8.32;41.19
61618;BME280;47518;51.776;9.370;2023-04-03T12:08:57;101798.03;;;8.15;39.39
61618;BME280;47518;51.776;9.370;2023-04-03T12:11:29;101794.47;;;7.92;40.33
61618;BME280;47518;51.776;9.370;2023-04-03T12:24:34;101794.59;;;7.68;41.60
61618;BME280;47518;51.776;9.370;2023-04-03T12:29:51;101780.41;;;9.07;37.22
61618;BME280;47518;51.776;9.370;2023-04-03T12:32:43;101788.41;;;8.76;38.23
61618;BME280;47518;51.776;9.370;2023-04-03T12:35:30;101766.34;;;10.05;36.47
61618;BME280;47518;51.776;9.370;2023-04-03T12:38:25;101764.91;;;11.47;33.51
61618;BME280;47518;51.776;9.370;2023-04-03T12:47:16;101760.25;;;12.32;30.74
61618;BME280;47518;51.776;9.370;2023-04-03T12:49:44;101761.06;;;12.14;31.96
61618;BME280;47518;51.776;9.370;2023-04-03T12:52:35;101768.34;;;11.96;31.84
61618;BME280;47518;51.776;9.370;2023-04-03T12:55:07;101762.28;;;11.55;31.86
61618;BME280;47518;51.776;9.370;2023-04-03T12:57:32;101749.75;;;11.82;30.98
61618;BME280;47518;51.776;9.370;2023-04-03T12:59:58;101760.44;;;12.48;30.98
61618;BME280;47518;51.776;9.370;2023-04-03T13:02:28;101757.50;;;12.77;31.85
61618;BME280;47518;51.776;9.370;2023-04-03T13:04:57;101752.13;;;12.67;31.74
61618;BME280;47518;51.776;9.370;2023-04-03T13:07:33;101749.84;;;11.33;32.13
61618;BME280;47518;51.776;9.370;2023-04-03T13:12:49;101743.06;;;10.91;34.38
61618;BME280;47518;51.776;9.370;2023-04-03T13:15:43;101748.47;;;10.02;36.03
61618;BME280;47518;51.776;9.370;2023-04-03T13:18:26;101733.28;;;9.90;36.56
61618;BME280;47518;51.776;9.370;2023-04-03T13:20:56;101731.72;;;10.37;36.12
61618;BME280;47518;51.776;9.370;2023-04-03T13:23:22;101729.59;;;11.55;32.29
61618;BME280;47518;51.776;9.370;2023-04-03T13:25:49;101728.97;;;12.08;31.58
61618;BME280;47518;51.776;9.370;2023-04-03T13:28:20;101715.38;;;12.79;29.98
61618;BME280;47518;51.776;9.370;2023-04-03T13:33:55;101714.25;;;13.08;28.37
61618;BME280;47518;51.776;9.370;2023-04-03T13:36:28;101705.84;;;13.19;28.77
61618;BME280;47518;51.776;9.370;2023-04-03T13:41:42;101714.44;;;12.89;30.01
61618;BME280;47518;51.776;9.370;2023-04-03T13:44:25;101707.84;;;12.10;30.63
61618;BME280;47518;51.776;9.370;2023-04-03T13:46:54;101710.34;;;11.10;31.21
61618;BME280;47518;51.776;9.370;2023-04-03T13:49:31;101708.25;;;10.75;33.73
61618;BME280;47518;51.776;9.370;2023-04-03T13:51:57;101703.81;;;10.35;34.21
61618;BME280;47518;51.776;9.370;2023-04-03T13:54:29;101701.44;;;11.37;32.70
61618;BME280;47518;51.776;9.370;2023-04-03T13:56:57;101704.91;;;11.10;32.92
61618;BME280;47518;51.776;9.370;2023-04-03T13:59:29;101701.38;;;10.22;33.89
61618;BME280;47518;51.776;9.370;2023-04-03T14:02:11;101685.91;;;11.00;32.07
61618;BME280;47518;51.776;9.370;2023-04-03T14:07:29;101686.44;;;10.17;34.45
61618;BME280;47518;51.776;9.370;2023-04-03T14:09:56;101684.16;;;9.72;33.53
61618;BME280;47518;51.776;9.370;2023-04-03T14:12:27;101683.50;;;10.59;31.40
61618;BME280;47518;51.776;9.370;2023-04-03T14:14:54;101685.31;;;11.06;32.48
61618;BME280;47518;51.776;9.370;2023-04-03T14:17:23;101682.97;;;11.21;32.22
61618;BME280;47518;51.776;9.370;2023-04-03T14:19:51;101682.34;;;11.84;31.19
61618;BME280;47518;51.776;9.370;2023-04-03T14:22:23;101674.09;;;11.56;31.39
61618;BME280;47518;51.776;9.370;2023-04-03T14:24:49;101678.25;;;11.60;31.08
61618;BME280;47518;51.776;9.370;2023-04-03T14:27:28;101666.72;;;10.92;31.89
61618;BME280;47518;51.776;9.370;2023-04-03T14:29:56;101664.56;;;10.76;33.62
61618;BME280;47518;51.776;9.370;2023-04-03T14:32:23;101653.44;;;10.79;32.69
61618;BME280;47518;51.776;9.370;2023-04-03T14:34:50;101670.97;;;10.17;33.80
61618;BME280;47518;51.776;9.370;2023-04-03T14:37:20;101662.00;;;9.67;35.03
61618;BME280;47518;51.776;9.370;2023-04-03T14:39:46;101660.34;;;9.95;34.96
61618;BME280;47518;51.776;9.370;2023-04-03T14:42:15;101667.84;;;10.12;34.51
61618;BME280;47518;51.776;9.370;2023-04-03T14:44:40;101660.97;;;9.99;35.77
61618;BME280;47518;51.776;9.370;2023-04-03T14:47:10;101664.22;;;9.43;35.46
61618;BME280;47518;51.776;9.370;2023-04-03T14:49:35;101670.25;;;9.25;35.69
61618;BME280;47518;51.776;9.370;2023-04-03T14:52:01;101668.00;;;9.30;35.97
61618;BME280;47518;51.776;9.370;2023-04-03T14:54:26;101655.91;;;9.44;36.05
61618;BME280;47518;51.776;9.370;2023-04-03T14:56:54;101647.72;;;9.34;35.67
61618;BME280;47518;51.776;9.370;2023-04-03T14:59:21;101658.44;;;9.26;37.44
61618;BME280;47518;51.776;9.370;2023-04-03T15:01:47;101649.13;;;9.59;36.31
61618;BME280;47518;51.776;9.370;2023-04-03T15:04:16;101651.97;;;9.58;35.41
61618;BME280;47518;51.776;9.370;2023-04-03T15:06:43;101657.16;;;9.30;35.56
61618;BME280;47518;51.776;9.370;2023-04-03T15:09:22;101667.75;;;9.13;36.34
61618;BME280;47518;51.776;9.370;2023-04-03T15:11:50;101658.19;;;8.88;36.62
61618;BME280;47518;51.776;9.370;2023-04-03T15:14:16;101656.19;;;8.90;37.35
61618;BME280;47518;51.776;9.370;2023-04-03T15:16:42;101652.88;;;9.38;36.37